OAS4005 OEJN-LEMD
Flight info
| Callsign | OAS4005 |
|---|---|
| Flight time | N/A |
| Altitude | 32000 |
| Route | BOMOX M686 OTEMO T55 KUNKI P751 METRU UP868 ARLOS DCT DINUX DCT SONAK DCT MORJA UA411 ANB UM134 LUXUR DCT GENIO DCT XARON DCT OLMIR DCT NINES M134 VLC N733 PRADO |
| Aircraft | B77L/H-SDE1E2E3FGHIJ2J3J4J5M1RWXY/LB1D1 |
Departure
| Time | 2026-04-27 20:46 |
|---|---|
| Airport | King Abdulaziz International Airport (OEJN) |
Arrival
| Time | N/A |
|---|---|
| Airport | Adolfo Suárez Madrid–Barajas Airport (LEMD) |
| Time | Latitude | Longitude | Altitude | Speed | Heading |
|---|---|---|---|---|---|
| 2026-04-27 20:24 | 21.68111 | 39.14941 | 32 ft | 0 kts | 286° |
| 2026-04-27 20:26 | 21.68110 | 39.14941 | 32 ft | 0 kts | 286° |
| 2026-04-27 20:36 | 21.68108 | 39.14951 | 32 ft | 4 kts | 288° |
| 2026-04-27 20:36 | 21.68099 | 39.14977 | 30 ft | 3 kts | 289° |
| 2026-04-27 20:36 | 21.68097 | 39.14982 | 31 ft | 5 kts | 289° |
| 2026-04-27 20:38 | 21.68104 | 39.14973 | 32 ft | 4 kts | 324° |
| 2026-04-27 20:38 | 21.68109 | 39.14995 | 32 ft | 5 kts | 136° |
| 2026-04-27 20:38 | 21.68107 | 39.14995 | 32 ft | 0 kts | 146° |
| 2026-04-27 20:39 | 21.68094 | 39.15006 | 32 ft | 6 kts | 143° |
| 2026-04-27 20:39 | 21.68029 | 39.15044 | 32 ft | 15 kts | 160° |
| 2026-04-27 20:39 | 21.67909 | 39.15093 | 33 ft | 22 kts | 159° |
| 2026-04-27 20:40 | 21.67761 | 39.15154 | 33 ft | 23 kts | 158° |
| 2026-04-27 20:40 | 21.67611 | 39.15217 | 34 ft | 23 kts | 159° |
| 2026-04-27 20:40 | 21.67546 | 39.15328 | 34 ft | 18 kts | 77° |
| 2026-04-27 20:40 | 21.67588 | 39.15457 | 34 ft | 18 kts | 69° |
| 2026-04-27 20:41 | 21.67636 | 39.15583 | 34 ft | 18 kts | 70° |
| 2026-04-27 20:41 | 21.67612 | 39.15703 | 35 ft | 14 kts | 129° |
| 2026-04-27 20:41 | 21.67535 | 39.15727 | 35 ft | 12 kts | 168° |
| 2026-04-27 20:41 | 21.67443 | 39.15755 | 35 ft | 16 kts | 160° |
| 2026-04-27 20:42 | 21.67325 | 39.15802 | 35 ft | 20 kts | 160° |
| 2026-04-27 20:42 | 21.67182 | 39.15858 | 36 ft | 24 kts | 159° |
| 2026-04-27 20:42 | 21.67022 | 39.15922 | 36 ft | 24 kts | 159° |
| 2026-04-27 20:42 | 21.66866 | 39.15984 | 37 ft | 24 kts | 159° |
| 2026-04-27 20:43 | 21.66718 | 39.16045 | 38 ft | 23 kts | 160° |
| 2026-04-27 20:43 | 21.66567 | 39.16102 | 38 ft | 23 kts | 160° |
| 2026-04-27 20:43 | 21.66424 | 39.16157 | 39 ft | 21 kts | 160° |
| 2026-04-27 20:43 | 21.66292 | 39.16210 | 39 ft | 19 kts | 159° |
| 2026-04-27 20:44 | 21.66195 | 39.16283 | 39 ft | 17 kts | 103° |
| 2026-04-27 20:44 | 21.66218 | 39.16398 | 38 ft | 16 kts | 66° |
| 2026-04-27 20:44 | 21.66284 | 39.16418 | 38 ft | 0 kts | 346° |
| 2026-04-27 20:45 | 21.66286 | 39.16418 | 36 ft | 3 kts | 346° |
| 2026-04-27 20:45 | 21.66381 | 39.16383 | 39 ft | 27 kts | 340° |
| 2026-04-27 20:45 | 21.66725 | 39.16246 | 41 ft | 91 kts | 340° |
| 2026-04-27 20:46 | 21.67590 | 39.15908 | 36 ft | 171 kts | 340° |
| 2026-04-27 20:46 | 21.68811 | 39.15438 | 540 ft | 188 kts | 340° |
| 2026-04-27 20:46 | 21.70030 | 39.14971 | 1446 ft | 183 kts | 343° |
| 2026-04-27 20:46 | 21.71240 | 39.14492 | 2041 ft | 194 kts | 342° |
| 2026-04-27 20:47 | 21.72575 | 39.13962 | 2234 ft | 216 kts | 341° |
| 2026-04-27 20:47 | 21.74039 | 39.13380 | 2584 ft | 232 kts | 340° |
| 2026-04-27 20:47 | 21.75600 | 39.12758 | 3019 ft | 244 kts | 340° |
| 2026-04-27 20:47 | 21.77219 | 39.12115 | 3339 ft | 251 kts | 340° |
| 2026-04-27 20:48 | 21.78881 | 39.11455 | 3689 ft | 260 kts | 339° |
| 2026-04-27 20:48 | 21.80590 | 39.10778 | 4403 ft | 263 kts | 340° |
| 2026-04-27 20:48 | 21.82332 | 39.10089 | 5002 ft | 271 kts | 340° |
| 2026-04-27 20:48 | 21.84103 | 39.09389 | 5561 ft | 271 kts | 339° |
| 2026-04-27 20:49 | 21.85872 | 39.08691 | 5945 ft | 271 kts | 338° |
| 2026-04-27 20:49 | 21.87685 | 39.07974 | 6020 ft | 283 kts | 338° |
| 2026-04-27 20:49 | 21.89533 | 39.07243 | 6031 ft | 283 kts | 338° |
| 2026-04-27 20:49 | 21.91338 | 39.06441 | 6026 ft | 279 kts | 334° |
| 2026-04-27 20:50 | 21.93101 | 39.05584 | 6018 ft | 277 kts | 334° |
| 2026-04-27 20:50 | 21.94854 | 39.04729 | 6025 ft | 277 kts | 335° |
| 2026-04-27 20:50 | 21.96610 | 39.03882 | 6028 ft | 276 kts | 335° |
| 2026-04-27 20:50 | 21.98369 | 39.03039 | 6027 ft | 277 kts | 335° |
| 2026-04-27 20:51 | 22.00124 | 39.02201 | 6035 ft | 276 kts | 334° |
| 2026-04-27 20:51 | 22.01878 | 39.01362 | 6178 ft | 276 kts | 334° |
| 2026-04-27 20:51 | 22.03641 | 39.00519 | 6795 ft | 280 kts | 333° |
| 2026-04-27 20:51 | 22.05383 | 38.99685 | 7376 ft | 285 kts | 334° |
| 2026-04-27 20:52 | 22.07202 | 38.98814 | 8048 ft | 287 kts | 333° |
| 2026-04-27 20:52 | 22.09035 | 38.97936 | 8712 ft | 290 kts | 333° |
| 2026-04-27 20:52 | 22.10864 | 38.97060 | 9347 ft | 293 kts | 333° |
| 2026-04-27 20:52 | 22.12739 | 38.96162 | 9969 ft | 297 kts | 333° |
| 2026-04-27 20:53 | 22.14647 | 38.95247 | 10456 ft | 306 kts | 332° |
| 2026-04-27 20:53 | 22.16665 | 38.94276 | 10593 ft | 328 kts | 333° |
| 2026-04-27 20:53 | 22.18816 | 38.93245 | 10758 ft | 349 kts | 333° |
| 2026-04-27 20:53 | 22.21102 | 38.92152 | 10910 ft | 370 kts | 333° |
| 2026-04-27 20:54 | 22.25784 | 38.89558 | 11576 ft | 384 kts | 315° |
| 2026-04-27 20:54 | 22.27428 | 38.87326 | 12173 ft | 377 kts | 297° |
| 2026-04-27 20:54 | 22.28710 | 38.84841 | 12792 ft | 381 kts | 296° |
| 2026-04-27 20:55 | 22.30013 | 38.82325 | 13433 ft | 385 kts | 296° |
| 2026-04-27 20:55 | 22.31337 | 38.79794 | 14059 ft | 388 kts | 296° |
| 2026-04-27 20:55 | 22.32674 | 38.77259 | 14729 ft | 389 kts | 296° |
| 2026-04-27 20:55 | 22.34018 | 38.74724 | 15392 ft | 389 kts | 296° |
| 2026-04-27 20:56 | 22.35368 | 38.72183 | 16022 ft | 391 kts | 296° |
| 2026-04-27 20:56 | 22.36725 | 38.69626 | 16635 ft | 393 kts | 296° |
| 2026-04-27 20:56 | 22.38088 | 38.67057 | 17250 ft | 395 kts | 296° |
| 2026-04-27 20:56 | 22.39457 | 38.64474 | 17848 ft | 397 kts | 296° |
| 2026-04-27 20:57 | 22.40835 | 38.61871 | 18351 ft | 401 kts | 296° |
| 2026-04-27 20:57 | 22.42224 | 38.59247 | 18831 ft | 403 kts | 296° |
| 2026-04-27 20:57 | 22.43619 | 38.56612 | 19311 ft | 406 kts | 295° |
| 2026-04-27 20:57 | 22.45023 | 38.53957 | 19809 ft | 408 kts | 295° |
| 2026-04-27 20:58 | 22.46433 | 38.51288 | 20281 ft | 410 kts | 295° |
| 2026-04-27 20:58 | 22.47854 | 38.48601 | 20756 ft | 412 kts | 295° |
| 2026-04-27 20:58 | 22.49304 | 38.45923 | 21206 ft | 416 kts | 298° |
| 2026-04-27 20:58 | 22.51236 | 38.43533 | 21518 ft | 430 kts | 314° |
| 2026-04-27 20:59 | 22.53615 | 38.41535 | 21765 ft | 437 kts | 316° |
| 2026-04-27 20:59 | 22.56037 | 38.39517 | 22142 ft | 441 kts | 316° |
| 2026-04-27 20:59 | 22.58460 | 38.37480 | 22631 ft | 442 kts | 315° |
| 2026-04-27 20:59 | 22.60881 | 38.35422 | 23089 ft | 443 kts | 315° |
| 2026-04-27 21:00 | 22.63307 | 38.33343 | 23492 ft | 446 kts | 314° |
| 2026-04-27 21:00 | 22.65742 | 38.31242 | 23818 ft | 449 kts | 314° |
| 2026-04-27 21:00 | 22.68183 | 38.29131 | 24202 ft | 450 kts | 314° |
| 2026-04-27 21:00 | 22.70629 | 38.27012 | 24605 ft | 450 kts | 314° |
| 2026-04-27 21:01 | 22.73074 | 38.24893 | 25020 ft | 451 kts | 315° |
| 2026-04-27 21:01 | 22.75522 | 38.22769 | 25406 ft | 451 kts | 315° |
| 2026-04-27 21:01 | 22.77974 | 38.20641 | 25758 ft | 453 kts | 315° |
| 2026-04-27 21:01 | 22.80436 | 38.18504 | 26113 ft | 454 kts | 315° |
| 2026-04-27 21:02 | 22.82903 | 38.16362 | 26499 ft | 454 kts | 315° |
| 2026-04-27 21:02 | 22.85373 | 38.14216 | 26853 ft | 455 kts | 315° |
| 2026-04-27 21:02 | 22.87848 | 38.12065 | 27170 ft | 457 kts | 314° |
| 2026-04-27 21:02 | 22.90334 | 38.09903 | 27467 ft | 459 kts | 314° |
| 2026-04-27 21:03 | 22.92824 | 38.07735 | 27777 ft | 460 kts | 314° |
| 2026-04-27 21:03 | 22.95326 | 38.05558 | 28071 ft | 461 kts | 314° |
| 2026-04-27 21:03 | 22.97834 | 38.03374 | 28358 ft | 463 kts | 314° |
| 2026-04-27 21:03 | 23.00340 | 38.01190 | 28628 ft | 464 kts | 314° |
| 2026-04-27 21:04 | 23.02778 | 37.99065 | 28870 ft | 465 kts | 314° |
| 2026-04-27 21:04 | 23.05303 | 37.96862 | 29109 ft | 466 kts | 314° |
| 2026-04-27 21:04 | 23.07799 | 37.94685 | 29482 ft | 465 kts | 314° |
| 2026-04-27 21:04 | 23.10317 | 37.92489 | 29906 ft | 463 kts | 314° |
| 2026-04-27 21:05 | 23.12820 | 37.90306 | 30265 ft | 460 kts | 314° |
| 2026-04-27 21:05 | 23.15309 | 37.88132 | 30590 ft | 458 kts | 314° |
| 2026-04-27 21:05 | 23.17790 | 37.85962 | 30900 ft | 457 kts | 314° |
| 2026-04-27 21:05 | 23.20259 | 37.83801 | 31200 ft | 455 kts | 314° |
| 2026-04-27 21:06 | 23.22723 | 37.81644 | 31495 ft | 454 kts | 314° |
| 2026-04-27 21:06 | 23.25178 | 37.79493 | 31790 ft | 453 kts | 314° |
| 2026-04-27 21:06 | 23.27640 | 37.77333 | 31822 ft | 456 kts | 314° |
| 2026-04-27 21:07 | 23.32556 | 37.73023 | 31877 ft | 452 kts | 314° |
| 2026-04-27 21:07 | 23.37442 | 37.68737 | 31890 ft | 450 kts | 314° |
| 2026-04-27 21:08 | 23.42310 | 37.64463 | 31905 ft | 450 kts | 313° |
| 2026-04-27 21:08 | 23.47178 | 37.60180 | 31903 ft | 450 kts | 313° |
| 2026-04-27 21:09 | 23.52045 | 37.55892 | 31896 ft | 450 kts | 313° |
| 2026-04-27 21:09 | 23.56920 | 37.51595 | 31898 ft | 451 kts | 313° |
| 2026-04-27 21:10 | 23.61806 | 37.47283 | 31907 ft | 452 kts | 313° |
| 2026-04-27 21:10 | 23.66696 | 37.42965 | 31899 ft | 452 kts | 313° |
| 2026-04-27 21:11 | 23.71588 | 37.38639 | 31907 ft | 453 kts | 313° |
| 2026-04-27 21:11 | 23.76451 | 37.34336 | 31907 ft | 453 kts | 313° |
| 2026-04-27 21:12 | 23.81340 | 37.30005 | 31906 ft | 453 kts | 313° |
| 2026-04-27 21:12 | 23.86225 | 37.25674 | 31907 ft | 452 kts | 313° |
| 2026-04-27 21:13 | 23.91102 | 37.21345 | 31919 ft | 451 kts | 313° |
| 2026-04-27 21:13 | 23.95973 | 37.17016 | 31910 ft | 451 kts | 313° |
| 2026-04-27 21:14 | 24.00832 | 37.12694 | 31908 ft | 451 kts | 313° |
| 2026-04-27 21:14 | 24.04874 | 37.09096 | 31912 ft | 450 kts | 313° |
| 2026-04-27 21:15 | 24.09728 | 37.04770 | 31930 ft | 451 kts | 312° |
| 2026-04-27 21:15 | 24.14585 | 37.00434 | 31922 ft | 450 kts | 312° |
| 2026-04-27 21:16 | 24.19367 | 36.96164 | 31921 ft | 450 kts | 312° |
| 2026-04-27 21:16 | 24.24223 | 36.91827 | 31920 ft | 450 kts | 312° |
| 2026-04-27 21:17 | 24.29078 | 36.87483 | 31922 ft | 450 kts | 312° |
| 2026-04-27 21:17 | 24.33930 | 36.83134 | 31920 ft | 450 kts | 312° |
| 2026-04-27 21:18 | 24.38780 | 36.78783 | 31920 ft | 451 kts | 312° |
| 2026-04-27 21:18 | 24.43633 | 36.74427 | 31946 ft | 451 kts | 312° |
| 2026-04-27 21:19 | 24.48497 | 36.70062 | 31928 ft | 452 kts | 312° |
| 2026-04-27 21:19 | 24.53357 | 36.65690 | 31926 ft | 451 kts | 312° |
| 2026-04-27 21:20 | 24.60250 | 36.58818 | 31927 ft | 436 kts | 300° |
| 2026-04-27 21:20 | 24.63374 | 36.53319 | 31936 ft | 429 kts | 290° |
| 2026-04-27 21:21 | 24.65410 | 36.47189 | 31934 ft | 428 kts | 284° |
| 2026-04-27 21:21 | 24.67283 | 36.40975 | 31938 ft | 429 kts | 284° |
| 2026-04-27 21:22 | 24.69182 | 36.34800 | 31933 ft | 429 kts | 284° |
| 2026-04-27 21:22 | 24.71106 | 36.28597 | 31933 ft | 428 kts | 284° |
| 2026-04-27 21:23 | 24.73021 | 36.22409 | 31943 ft | 426 kts | 284° |
| 2026-04-27 21:23 | 24.74923 | 36.16243 | 31933 ft | 425 kts | 284° |
| 2026-04-27 21:24 | 24.76816 | 36.10093 | 31937 ft | 424 kts | 284° |
| 2026-04-27 21:24 | 24.78700 | 36.03959 | 31939 ft | 423 kts | 284° |
| 2026-04-27 21:25 | 24.80548 | 35.97936 | 31941 ft | 423 kts | 284° |
| 2026-04-27 21:25 | 24.82426 | 35.91802 | 31940 ft | 423 kts | 284° |
| 2026-04-27 21:26 | 24.84301 | 35.85668 | 31940 ft | 423 kts | 284° |
| 2026-04-27 21:26 | 24.86175 | 35.79526 | 31946 ft | 423 kts | 284° |
| 2026-04-27 21:27 | 24.88049 | 35.73377 | 31964 ft | 424 kts | 284° |
| 2026-04-27 21:27 | 24.89924 | 35.67213 | 31950 ft | 425 kts | 284° |
| 2026-04-27 21:28 | 24.91798 | 35.61045 | 31947 ft | 425 kts | 284° |